sensor_id;sensor_type;location;lat;lon;timestamp;pressure;altitude;pressure_sealevel;temperature;humidity
36254;BME280;22291;52.250;21.228;2022-07-03T00:02:19;100983.02;;;17.60;77.88
36254;BME280;22291;52.250;21.228;2022-07-03T00:04:45;100984.39;;;17.54;77.97
36254;BME280;22291;52.250;21.228;2022-07-03T00:07:11;100987.10;;;17.48;77.99
36254;BME280;22291;52.250;21.228;2022-07-03T00:09:38;100990.05;;;17.43;77.71
36254;BME280;22291;52.250;21.228;2022-07-03T00:14:54;100988.88;;;17.31;77.74
36254;BME280;22291;52.250;21.228;2022-07-03T00:17:20;100984.53;;;17.24;77.74
36254;BME280;22291;52.250;21.228;2022-07-03T00:19:47;100986.69;;;17.18;77.76
36254;BME280;22291;52.250;21.228;2022-07-03T00:22:14;100989.30;;;17.15;77.81
36254;BME280;22291;52.250;21.228;2022-07-03T00:24:52;100989.51;;;17.10;78.05
36254;BME280;22291;52.250;21.228;2022-07-03T00:27:21;100993.24;;;17.05;78.13
36254;BME280;22291;52.250;21.228;2022-07-03T00:29:50;100997.80;;;17.01;78.20
36254;BME280;22291;52.250;21.228;2022-07-03T00:32:21;100991.17;;;16.96;78.49
36254;BME280;22291;52.250;21.228;2022-07-03T00:34:51;100990.80;;;16.91;79.08
36254;BME280;22291;52.250;21.228;2022-07-03T00:37:18;100993.16;;;16.87;79.38
36254;BME280;22291;52.250;21.228;2022-07-03T00:39:44;100986.17;;;16.83;79.58
36254;BME280;22291;52.250;21.228;2022-07-03T00:42:12;100988.66;;;16.82;79.77
36254;BME280;22291;52.250;21.228;2022-07-03T00:44:47;100991.75;;;16.80;79.86
36254;BME280;22291;52.250;21.228;2022-07-03T00:47:17;100986.83;;;16.80;79.90
36254;BME280;22291;52.250;21.228;2022-07-03T00:49:47;100979.79;;;16.79;79.90
36254;BME280;22291;52.250;21.228;2022-07-03T00:52:16;100980.91;;;16.78;80.29
36254;BME280;22291;52.250;21.228;2022-07-03T00:54:50;100983.97;;;16.76;80.05
36254;BME280;22291;52.250;21.228;2022-07-03T00:57:15;100979.99;;;16.74;80.15
36254;BME280;22291;52.250;21.228;2022-07-03T00:59:43;100971.09;;;16.71;80.18
36254;BME280;22291;52.250;21.228;2022-07-03T01:02:34;100971.67;;;16.70;80.34
36254;BME280;22291;52.250;21.228;2022-07-03T01:08:19;100973.45;;;16.66;80.24
36254;BME280;22291;52.250;21.228;2022-07-03T01:28:15;100967.75;;;16.44;81.20
36254;BME280;22291;52.250;21.228;2022-07-03T01:33:16;100969.77;;;16.41;80.99
36254;BME280;22291;52.250;21.228;2022-07-03T01:36:02;100962.41;;;16.41;81.09
36254;BME280;22291;52.250;21.228;2022-07-03T01:38:34;100964.56;;;16.42;81.21
36254;BME280;22291;52.250;21.228;2022-07-03T01:41:04;100965.92;;;16.42;81.27
36254;BME280;22291;52.250;21.228;2022-07-03T01:43:38;100966.17;;;16.43;81.41
36254;BME280;22291;52.250;21.228;2022-07-03T01:46:10;100959.10;;;16.42;81.44
36254;BME280;22291;52.250;21.228;2022-07-03T01:48:41;100956.83;;;16.44;81.69
36254;BME280;22291;52.250;21.228;2022-07-03T01:51:09;100953.31;;;16.43;81.91
36254;BME280;22291;52.250;21.228;2022-07-03T01:53:43;100947.85;;;16.43;82.17
36254;BME280;22291;52.250;21.228;2022-07-03T01:56:12;100938.05;;;16.42;82.26
36254;BME280;22291;52.250;21.228;2022-07-03T01:58:39;100933.62;;;16.44;82.32
36254;BME280;22291;52.250;21.228;2022-07-03T02:01:22;100938.75;;;16.46;82.31
36254;BME280;22291;52.250;21.228;2022-07-03T02:04:24;100934.41;;;16.44;82.40
36254;BME280;22291;52.250;21.228;2022-07-03T02:07:08;100931.47;;;16.43;82.47
36254;BME280;22291;52.250;21.228;2022-07-03T02:09:44;100926.91;;;16.41;82.55
36254;BME280;22291;52.250;21.228;2022-07-03T02:12:12;100927.45;;;16.41;82.43
36254;BME280;22291;52.250;21.228;2022-07-03T02:14:40;100935.65;;;16.41;82.28
36254;BME280;22291;52.250;21.228;2022-07-03T02:17:17;100931.01;;;16.41;82.70
36254;BME280;22291;52.250;21.228;2022-07-03T02:20:00;100931.09;;;16.39;82.40
36254;BME280;22291;52.250;21.228;2022-07-03T02:22:32;100932.70;;;16.40;82.53
36254;BME280;22291;52.250;21.228;2022-07-03T02:25:23;100928.15;;;16.38;82.68
36254;BME280;22291;52.250;21.228;2022-07-03T02:27:55;100923.56;;;16.36;82.38
36254;BME280;22291;52.250;21.228;2022-07-03T02:30:24;100931.30;;;16.34;82.50
36254;BME280;22291;52.250;21.228;2022-07-03T02:32:55;100927.86;;;16.31;82.12
36254;BME280;22291;52.250;21.228;2022-07-03T02:35:33;100927.97;;;16.28;82.18
36254;BME280;22291;52.250;21.228;2022-07-03T02:43:49;100932.02;;;16.22;82.33
36254;BME280;22291;52.250;21.228;2022-07-03T02:52:34;100927.98;;;16.13;82.23
36254;BME280;22291;52.250;21.228;2022-07-03T02:55:12;100928.17;;;16.08;82.10
36254;BME280;22291;52.250;21.228;2022-07-03T02:58:01;100937.02;;;16.05;82.19
36254;BME280;22291;52.250;21.228;2022-07-03T03:00:27;100930.84;;;16.02;82.16
36254;BME280;22291;52.250;21.228;2022-07-03T03:02:58;100932.08;;;15.98;82.17
36254;BME280;22291;52.250;21.228;2022-07-03T03:05:30;100936.03;;;15.95;82.23
36254;BME280;22291;52.250;21.228;2022-07-03T03:11:07;100940.64;;;15.88;82.48
36254;BME280;22291;52.250;21.228;2022-07-03T03:13:35;100946.42;;;15.86;82.55
36254;BME280;22291;52.250;21.228;2022-07-03T03:16:10;100939.38;;;15.85;82.71
36254;BME280;22291;52.250;21.228;2022-07-03T03:18:39;100940.28;;;15.83;82.76
36254;BME280;22291;52.250;21.228;2022-07-03T03:21:09;100939.24;;;15.82;82.82
36254;BME280;22291;52.250;21.228;2022-07-03T03:23:45;100935.70;;;15.81;83.02
36254;BME280;22291;52.250;21.228;2022-07-03T03:26:20;100934.58;;;15.82;82.87
36254;BME280;22291;52.250;21.228;2022-07-03T03:28:49;100933.87;;;15.79;82.97
36254;BME280;22291;52.250;21.228;2022-07-03T03:31:17;100929.56;;;15.78;83.11
36254;BME280;22291;52.250;21.228;2022-07-03T03:33:46;100930.34;;;15.79;82.89
36254;BME280;22291;52.250;21.228;2022-07-03T03:36:16;100929.78;;;15.79;83.05
36254;BME280;22291;52.250;21.228;2022-07-03T03:38:45;100926.83;;;15.78;82.90
36254;BME280;22291;52.250;21.228;2022-07-03T03:41:12;100931.14;;;15.79;83.25
36254;BME280;22291;52.250;21.228;2022-07-03T03:43:40;100930.02;;;15.80;83.15
36254;BME280;22291;52.250;21.228;2022-07-03T03:46:07;100928.66;;;15.80;83.25
36254;BME280;22291;52.250;21.228;2022-07-03T03:48:33;100925.03;;;15.82;83.18
36254;BME280;22291;52.250;21.228;2022-07-03T03:51:02;100917.89;;;15.84;83.22
36254;BME280;22291;52.250;21.228;2022-07-03T03:53:30;100925.75;;;15.85;83.27
36254;BME280;22291;52.250;21.228;2022-07-03T03:56:11;100915.05;;;15.86;83.47
36254;BME280;22291;52.250;21.228;2022-07-03T03:58:41;100911.78;;;15.87;83.25
36254;BME280;22291;52.250;21.228;2022-07-03T04:01:09;100913.36;;;15.88;83.29
36254;BME280;22291;52.250;21.228;2022-07-03T04:03:37;100910.30;;;15.90;83.36
36254;BME280;22291;52.250;21.228;2022-07-03T04:06:04;100911.02;;;15.93;83.40
36254;BME280;22291;52.250;21.228;2022-07-03T04:08:31;100907.06;;;15.96;83.36
36254;BME280;22291;52.250;21.228;2022-07-03T04:10:57;100901.27;;;15.98;83.28
36254;BME280;22291;52.250;21.228;2022-07-03T04:13:23;100902.45;;;16.03;83.45
36254;BME280;22291;52.250;21.228;2022-07-03T04:15:52;100897.13;;;16.06;83.59
36254;BME280;22291;52.250;21.228;2022-07-03T04:18:19;100905.91;;;16.12;83.52
36254;BME280;22291;52.250;21.228;2022-07-03T04:20:45;100906.06;;;16.16;83.72
36254;BME280;22291;52.250;21.228;2022-07-03T04:23:12;100909.72;;;16.20;83.65
36254;BME280;22291;52.250;21.228;2022-07-03T04:25:38;100911.46;;;16.24;83.54
36254;BME280;22291;52.250;21.228;2022-07-03T04:28:05;100911.27;;;16.30;83.50
36254;BME280;22291;52.250;21.228;2022-07-03T04:30:31;100917.64;;;16.34;83.09
36254;BME280;22291;52.250;21.228;2022-07-03T04:32:57;100918.59;;;16.38;83.28
36254;BME280;22291;52.250;21.228;2022-07-03T04:35:23;100914.30;;;16.43;83.15
36254;BME280;22291;52.250;21.228;2022-07-03T04:37:49;100916.83;;;16.48;83.17
36254;BME280;22291;52.250;21.228;2022-07-03T04:40:15;100909.22;;;16.54;83.25
36254;BME280;22291;52.250;21.228;2022-07-03T04:42:41;100914.69;;;16.60;83.30
36254;BME280;22291;52.250;21.228;2022-07-03T04:45:08;100904.38;;;16.66;83.12
36254;BME280;22291;52.250;21.228;2022-07-03T04:47:34;100910.88;;;16.73;83.22
36254;BME280;22291;52.250;21.228;2022-07-03T04:50:00;100911.49;;;16.79;82.90
36254;BME280;22291;52.250;21.228;2022-07-03T04:52:27;100905.52;;;16.86;82.98
36254;BME280;22291;52.250;21.228;2022-07-03T04:54:53;100910.41;;;16.92;82.89
36254;BME280;22291;52.250;21.228;2022-07-03T04:57:19;100910.10;;;17.00;82.43
36254;BME280;22291;52.250;21.228;2022-07-03T04:59:46;100911.25;;;17.05;82.17
36254;BME280;22291;52.250;21.228;2022-07-03T05:02:12;100912.31;;;17.13;82.19
36254;BME280;22291;52.250;21.228;2022-07-03T05:04:38;100911.18;;;17.20;82.29
36254;BME280;22291;52.250;21.228;2022-07-03T05:07:05;100917.91;;;17.29;82.38
36254;BME280;22291;52.250;21.228;2022-07-03T05:09:31;100913.95;;;17.39;82.00
36254;BME280;22291;52.250;21.228;2022-07-03T05:11:59;100909.50;;;17.46;81.59
36254;BME280;22291;52.250;21.228;2022-07-03T05:14:25;100910.30;;;17.53;81.37
36254;BME280;22291;52.250;21.228;2022-07-03T05:16:51;100905.30;;;17.61;80.99
36254;BME280;22291;52.250;21.228;2022-07-03T05:19:17;100906.78;;;17.71;80.90
36254;BME280;22291;52.250;21.228;2022-07-03T05:21:43;100909.50;;;17.77;79.87
36254;BME280;22291;52.250;21.228;2022-07-03T05:24:09;100907.80;;;17.85;79.62
36254;BME280;22291;52.250;21.228;2022-07-03T05:26:35;100914.09;;;17.91;78.58
36254;BME280;22291;52.250;21.228;2022-07-03T05:29:02;100916.81;;;17.98;78.17
36254;BME280;22291;52.250;21.228;2022-07-03T05:31:28;100918.63;;;18.06;78.14
36254;BME280;22291;52.250;21.228;2022-07-03T05:33:54;100914.87;;;18.17;78.08
36254;BME280;22291;52.250;21.228;2022-07-03T05:36:20;100918.59;;;18.31;77.98
36254;BME280;22291;52.250;21.228;2022-07-03T05:38:46;100914.89;;;18.45;77.24
36254;BME280;22291;52.250;21.228;2022-07-03T05:41:31;100917.12;;;18.61;76.93
36254;BME280;22291;52.250;21.228;2022-07-03T05:43:57;100914.66;;;18.78;75.78
36254;BME280;22291;52.250;21.228;2022-07-03T05:46:24;100910.17;;;18.92;75.41
36254;BME280;22291;52.250;21.228;2022-07-03T05:48:50;100910.53;;;19.07;74.80
36254;BME280;22291;52.250;21.228;2022-07-03T05:51:16;100912.84;;;19.20;74.53
36254;BME280;22291;52.250;21.228;2022-07-03T05:53:42;100905.58;;;19.34;73.79
36254;BME280;22291;52.250;21.228;2022-07-03T05:56:08;100911.41;;;19.49;73.35
36254;BME280;22291;52.250;21.228;2022-07-03T05:58:35;100906.28;;;19.63;72.64
36254;BME280;22291;52.250;21.228;2022-07-03T06:01:01;100910.31;;;19.75;71.86
36254;BME280;22291;52.250;21.228;2022-07-03T06:03:27;100907.69;;;19.89;71.12
36254;BME280;22291;52.250;21.228;2022-07-03T06:05:53;100908.34;;;20.02;71.02
36254;BME280;22291;52.250;21.228;2022-07-03T06:08:19;100911.98;;;20.15;70.38
36254;BME280;22291;52.250;21.228;2022-07-03T06:10:46;100915.84;;;20.30;70.05
36254;BME280;22291;52.250;21.228;2022-07-03T06:13:12;100915.13;;;20.43;69.69
36254;BME280;22291;52.250;21.228;2022-07-03T06:15:38;100919.47;;;20.54;68.97
36254;BME280;22291;52.250;21.228;2022-07-03T06:18:04;100914.63;;;20.67;68.05
36254;BME280;22291;52.250;21.228;2022-07-03T06:20:30;100917.73;;;20.75;67.51
36254;BME280;22291;52.250;21.228;2022-07-03T06:22:57;100917.60;;;20.87;67.46
36254;BME280;22291;52.250;21.228;2022-07-03T06:25:23;100918.08;;;21.03;67.22
36254;BME280;22291;52.250;21.228;2022-07-03T06:27:49;100916.16;;;21.17;66.45
36254;BME280;22291;52.250;21.228;2022-07-03T06:30:16;100913.05;;;21.32;66.36
36254;BME280;22291;52.250;21.228;2022-07-03T06:32:42;100918.48;;;21.48;65.80
36254;BME280;22291;52.250;21.228;2022-07-03T06:35:08;100919.88;;;21.61;65.28
36254;BME280;22291;52.250;21.228;2022-07-03T06:37:34;100920.09;;;21.75;64.77
36254;BME280;22291;52.250;21.228;2022-07-03T06:40:00;100918.30;;;21.87;64.13
36254;BME280;22291;52.250;21.228;2022-07-03T06:42:27;100919.30;;;22.01;63.46
36254;BME280;22291;52.250;21.228;2022-07-03T06:44:53;100917.89;;;22.15;63.15
36254;BME280;22291;52.250;21.228;2022-07-03T06:47:19;100918.50;;;22.28;62.20
36254;BME280;22291;52.250;21.228;2022-07-03T06:49:46;100918.99;;;22.37;61.73
36254;BME280;22291;52.250;21.228;2022-07-03T06:52:12;100918.19;;;22.50;61.70
36254;BME280;22291;52.250;21.228;2022-07-03T06:54:38;100926.45;;;22.67;61.66
36254;BME280;22291;52.250;21.228;2022-07-03T06:57:06;100909.42;;;22.78;60.56
36254;BME280;22291;52.250;21.228;2022-07-03T06:59:32;100917.68;;;22.95;60.51
36254;BME280;22291;52.250;21.228;2022-07-03T07:01:58;100910.59;;;23.11;59.61
36254;BME280;22291;52.250;21.228;2022-07-03T07:04:24;100905.95;;;23.22;59.06
36254;BME280;22291;52.250;21.228;2022-07-03T07:06:50;100903.14;;;23.39;59.06
36254;BME280;22291;52.250;21.228;2022-07-03T07:09:16;100911.55;;;23.54;58.34
36254;BME280;22291;52.250;21.228;2022-07-03T07:11:42;100904.73;;;23.68;57.82
36254;BME280;22291;52.250;21.228;2022-07-03T07:14:08;100896.59;;;23.82;57.05
36254;BME280;22291;52.250;21.228;2022-07-03T07:16:34;100895.49;;;23.98;56.67
36254;BME280;22291;52.250;21.228;2022-07-03T07:19:00;100902.47;;;24.12;56.33
36254;BME280;22291;52.250;21.228;2022-07-03T07:21:27;100894.05;;;24.29;56.27
36254;BME280;22291;52.250;21.228;2022-07-03T07:23:53;100887.84;;;24.54;55.84
36254;BME280;22291;52.250;21.228;2022-07-03T07:26:19;100868.94;;;24.70;55.35
36254;BME280;22291;52.250;21.228;2022-07-03T07:28:46;100862.84;;;24.92;55.15
36254;BME280;22291;52.250;21.228;2022-07-03T07:31:12;100862.47;;;25.12;53.55
36254;BME280;22291;52.250;21.228;2022-07-03T07:33:38;100863.87;;;25.33;53.99
36254;BME280;22291;52.250;21.228;2022-07-03T07:36:05;100862.67;;;25.56;53.50
36254;BME280;22291;52.250;21.228;2022-07-03T07:38:31;100863.03;;;25.80;53.13
36254;BME280;22291;52.250;21.228;2022-07-03T07:40:57;100859.41;;;26.04;52.28
36254;BME280;22291;52.250;21.228;2022-07-03T07:43:24;100859.70;;;26.28;51.97
36254;BME280;22291;52.250;21.228;2022-07-03T07:45:50;100850.45;;;26.53;51.55
36254;BME280;22291;52.250;21.228;2022-07-03T07:48:18;100860.23;;;26.79;51.05
36254;BME280;22291;52.250;21.228;2022-07-03T07:50:45;100857.31;;;27.00;49.85
36254;BME280;22291;52.250;21.228;2022-07-03T07:53:11;100857.25;;;27.08;49.33
36254;BME280;22291;52.250;21.228;2022-07-03T07:55:37;100858.30;;;27.28;49.44
36254;BME280;22291;52.250;21.228;2022-07-03T07:58:03;100855.91;;;27.49;48.57
36254;BME280;22291;52.250;21.228;2022-07-03T08:00:29;100847.81;;;27.66;48.17
36254;BME280;22291;52.250;21.228;2022-07-03T08:02:55;100847.43;;;27.83;46.70
36254;BME280;22291;52.250;21.228;2022-07-03T08:05:39;100854.90;;;27.89;46.57
36254;BME280;22291;52.250;21.228;2022-07-03T08:08:11;100849.97;;;28.04;46.18
36254;BME280;22291;52.250;21.228;2022-07-03T08:10:42;100850.53;;;28.23;45.65
36254;BME280;22291;52.250;21.228;2022-07-03T08:13:14;100849.11;;;28.42;45.59
36254;BME280;22291;52.250;21.228;2022-07-03T08:15:43;100846.50;;;28.58;44.43
36254;BME280;22291;52.250;21.228;2022-07-03T08:18:10;100835.40;;;28.70;44.00
36254;BME280;22291;52.250;21.228;2022-07-03T08:20:37;100837.48;;;28.78;43.36
36254;BME280;22291;52.250;21.228;2022-07-03T08:23:04;100848.57;;;28.93;43.85
36254;BME280;22291;52.250;21.228;2022-07-03T08:25:31;100844.50;;;29.10;43.67
36254;BME280;22291;52.250;21.228;2022-07-03T08:27:58;100837.02;;;29.30;43.05
36254;BME280;22291;52.250;21.228;2022-07-03T08:30:25;100841.19;;;29.42;42.14
36254;BME280;22291;52.250;21.228;2022-07-03T08:32:54;100835.50;;;29.49;42.09
36254;BME280;22291;52.250;21.228;2022-07-03T08:35:22;100827.89;;;29.61;41.35
36254;BME280;22291;52.250;21.228;2022-07-03T08:37:48;100828.44;;;29.76;41.06
36254;BME280;22291;52.250;21.228;2022-07-03T08:40:19;100834.53;;;29.79;40.57
36254;BME280;22291;52.250;21.228;2022-07-03T08:42:48;100825.62;;;29.96;39.56
36254;BME280;22291;52.250;21.228;2022-07-03T08:45:18;100824.80;;;30.08;39.41
36254;BME280;22291;52.250;21.228;2022-07-03T08:47:47;100829.44;;;30.14;39.29
36254;BME280;22291;52.250;21.228;2022-07-03T08:50:16;100822.14;;;30.29;38.94
36254;BME280;22291;52.250;21.228;2022-07-03T08:52:44;100823.17;;;30.47;38.05
36254;BME280;22291;52.250;21.228;2022-07-03T08:55:12;100816.55;;;30.49;38.19
36254;BME280;22291;52.250;21.228;2022-07-03T08:57:41;100817.78;;;30.72;38.25
36254;BME280;22291;52.250;21.228;2022-07-03T09:00:16;100809.14;;;30.83;38.11
36254;BME280;22291;52.250;21.228;2022-07-03T09:02:44;100807.23;;;31.05;37.76
36254;BME280;22291;52.250;21.228;2022-07-03T09:05:12;100811.33;;;31.17;37.90
36254;BME280;22291;52.250;21.228;2022-07-03T09:07:40;100804.66;;;31.35;37.97
36254;BME280;22291;52.250;21.228;2022-07-03T09:10:16;100801.75;;;31.55;37.59
36254;BME280;22291;52.250;21.228;2022-07-03T09:12:45;100798.50;;;31.78;37.21
36254;BME280;22291;52.250;21.228;2022-07-03T09:15:12;100798.14;;;31.97;36.86
36254;BME280;22291;52.250;21.228;2022-07-03T09:17:39;100797.47;;;32.14;36.09
36254;BME280;22291;52.250;21.228;2022-07-03T09:20:07;100793.62;;;32.29;36.32
36254;BME280;22291;52.250;21.228;2022-07-03T09:22:36;100788.69;;;32.46;36.28
36254;BME280;22291;52.250;21.228;2022-07-03T09:25:09;100798.45;;;32.58;35.50
36254;BME280;22291;52.250;21.228;2022-07-03T09:27:39;100797.36;;;32.56;34.79
36254;BME280;22291;52.250;21.228;2022-07-03T09:30:15;100794.38;;;32.55;35.65
36254;BME280;22291;52.250;21.228;2022-07-03T09:32:46;100796.70;;;32.65;34.90
36254;BME280;22291;52.250;21.228;2022-07-03T09:35:16;100793.29;;;32.83;35.08
36254;BME280;22291;52.250;21.228;2022-07-03T09:37:57;100800.78;;;32.99;34.89
36254;BME280;22291;52.250;21.228;2022-07-03T09:40:27;100792.89;;;33.19;34.57
36254;BME280;22291;52.250;21.228;2022-07-03T09:43:06;100795.44;;;33.26;34.44
36254;BME280;22291;52.250;21.228;2022-07-03T09:45:57;100788.75;;;33.28;33.63
36254;BME280;22291;52.250;21.228;2022-07-03T09:48:30;100782.43;;;33.37;33.89
36254;BME280;22291;52.250;21.228;2022-07-03T09:51:18;100776.05;;;33.37;33.31
36254;BME280;22291;52.250;21.228;2022-07-03T09:53:58;100773.06;;;33.31;33.43
36254;BME280;22291;52.250;21.228;2022-07-03T09:56:29;100781.52;;;33.40;33.61
36254;BME280;22291;52.250;21.228;2022-07-03T09:59:11;100773.34;;;33.68;32.97
36254;BME280;22291;52.250;21.228;2022-07-03T10:01:40;100778.44;;;33.92;33.31
36254;BME280;22291;52.250;21.228;2022-07-03T10:06:50;100770.14;;;34.15;32.65
36254;BME280;22291;52.250;21.228;2022-07-03T10:09:26;100767.55;;;34.25;32.63
36254;BME280;22291;52.250;21.228;2022-07-03T10:11:56;100769.80;;;34.44;32.34
36254;BME280;22291;52.250;21.228;2022-07-03T10:14:27;100774.83;;;34.63;32.15
36254;BME280;22291;52.250;21.228;2022-07-03T10:16:54;100772.88;;;34.82;32.05
36254;BME280;22291;52.250;21.228;2022-07-03T10:19:30;100760.55;;;34.93;31.53
36254;BME280;22291;52.250;21.228;2022-07-03T10:22:00;100758.20;;;34.96;31.10
36254;BME280;22291;52.250;21.228;2022-07-03T10:24:30;100761.00;;;34.92;31.51
36254;BME280;22291;52.250;21.228;2022-07-03T10:27:00;100758.98;;;34.88;30.93
36254;BME280;22291;52.250;21.228;2022-07-03T10:29:27;100757.41;;;34.87;30.88
36254;BME280;22291;52.250;21.228;2022-07-03T10:31:55;100759.92;;;34.75;30.51
36254;BME280;22291;52.250;21.228;2022-07-03T10:34:24;100750.86;;;34.76;30.99
36254;BME280;22291;52.250;21.228;2022-07-03T10:36:54;100753.37;;;34.88;30.81
36254;BME280;22291;52.250;21.228;2022-07-03T10:39:40;100746.34;;;34.97;30.55
36254;BME280;22291;52.250;21.228;2022-07-03T10:42:34;100742.45;;;34.94;30.04
36254;BME280;22291;52.250;21.228;2022-07-03T10:45:19;100738.02;;;34.66;29.84
36254;BME280;22291;52.250;21.228;2022-07-03T10:47:47;100733.77;;;34.47;30.26
36254;BME280;22291;52.250;21.228;2022-07-03T10:50:20;100729.58;;;34.52;30.52
36254;BME280;22291;52.250;21.228;2022-07-03T10:52:48;100724.92;;;34.67;30.49
36254;BME280;22291;52.250;21.228;2022-07-03T10:55:16;100731.50;;;34.78;30.52
36254;BME280;22291;52.250;21.228;2022-07-03T10:58:05;100730.41;;;34.98;30.55
36254;BME280;22291;52.250;21.228;2022-07-03T11:00:53;100729.17;;;35.18;30.75
36254;BME280;22291;52.250;21.228;2022-07-03T11:09:15;100713.64;;;35.55;29.73
36254;BME280;22291;52.250;21.228;2022-07-03T11:11:43;100708.66;;;35.50;29.42
36254;BME280;22291;52.250;21.228;2022-07-03T11:14:22;100708.98;;;35.47;29.39
36254;BME280;22291;52.250;21.228;2022-07-03T11:17:20;100707.20;;;35.68;29.49
36254;BME280;22291;52.250;21.228;2022-07-03T11:19:49;100701.59;;;35.78;28.84
36254;BME280;22291;52.250;21.228;2022-07-03T11:22:53;100702.95;;;35.82;28.76
36254;BME280;22291;52.250;21.228;2022-07-03T11:25:22;100689.98;;;35.85;28.73
36254;BME280;22291;52.250;21.228;2022-07-03T11:27:51;100701.23;;;35.85;28.80
36254;BME280;22291;52.250;21.228;2022-07-03T11:30:18;100697.91;;;35.91;28.82
36254;BME280;22291;52.250;21.228;2022-07-03T11:32:52;100697.91;;;35.91;28.64
36254;BME280;22291;52.250;21.228;2022-07-03T11:35:53;100689.73;;;35.60;27.94
36254;BME280;22291;52.250;21.228;2022-07-03T11:38:25;100693.83;;;35.45;28.49
36254;BME280;22291;52.250;21.228;2022-07-03T11:40:55;100688.31;;;35.64;29.05
36254;BME280;22291;52.250;21.228;2022-07-03T11:43:23;100684.65;;;35.87;28.65
36254;BME280;22291;52.250;21.228;2022-07-03T11:45:50;100678.38;;;35.92;27.89
36254;BME280;22291;52.250;21.228;2022-07-03T11:48:20;100677.96;;;35.70;27.97
36254;BME280;22291;52.250;21.228;2022-07-03T11:50:48;100676.44;;;35.74;28.00
36254;BME280;22291;52.250;21.228;2022-07-03T11:55:51;100677.33;;;35.80;28.19
36254;BME280;22291;52.250;21.228;2022-07-03T11:58:39;100672.09;;;35.50;28.30
36254;BME280;22291;52.250;21.228;2022-07-03T12:01:29;100664.05;;;35.06;28.44
36254;BME280;22291;52.250;21.228;2022-07-03T12:04:19;100672.94;;;34.58;28.69
36254;BME280;22291;52.250;21.228;2022-07-03T12:06:50;100674.41;;;34.13;29.00
36254;BME280;22291;52.250;21.228;2022-07-03T12:12:06;100668.37;;;33.25;30.02
36254;BME280;22291;52.250;21.228;2022-07-03T12:14:45;100654.42;;;32.90;30.24
36254;BME280;22291;52.250;21.228;2022-07-03T12:17:20;100666.33;;;32.64;30.48
36254;BME280;22291;52.250;21.228;2022-07-03T12:19:52;100665.09;;;32.34;30.99
36254;BME280;22291;52.250;21.228;2022-07-03T12:25:08;100648.84;;;32.60;31.49
36254;BME280;22291;52.250;21.228;2022-07-03T12:30:27;100652.50;;;32.52;31.80
36254;BME280;22291;52.250;21.228;2022-07-03T12:32:45;100695.00;;;32.68;31.83
36254;BME280;22291;52.250;21.228;2022-07-03T12:35:12;100645.55;;;32.56;32.48
36254;BME280;22291;52.250;21.228;2022-07-03T12:37:40;100647.60;;;32.95;32.36
36254;BME280;22291;52.250;21.228;2022-07-03T12:40:10;100650.64;;;33.28;31.54
36254;BME280;22291;52.250;21.228;2022-07-03T12:42:45;100641.78;;;33.29;31.08
36254;BME280;22291;52.250;21.228;2022-07-03T12:45:14;100663.45;;;33.65;30.77
36254;BME280;22291;52.250;21.228;2022-07-03T12:47:42;100663.45;;;33.65;30.77
36254;BME280;22291;52.250;21.228;2022-07-03T12:50:09;100646.87;;;33.84;31.14
36254;BME280;22291;52.250;21.228;2022-07-03T12:52:54;100644.46;;;34.10;30.56
36254;BME280;22291;52.250;21.228;2022-07-03T12:55:26;100641.40;;;34.21;30.23
36254;BME280;22291;52.250;21.228;2022-07-03T12:58:16;100664.56;;;34.08;30.21
36254;BME280;22291;52.250;21.228;2022-07-03T13:01:04;100645.55;;;33.67;30.28
36254;BME280;22291;52.250;21.228;2022-07-03T13:03:34;100647.37;;;33.07;30.55
36254;BME280;22291;52.250;21.228;2022-07-03T13:06:00;100644.05;;;32.30;31.57
36254;BME280;22291;52.250;21.228;2022-07-03T13:08:26;100644.05;;;32.30;31.57
36254;BME280;22291;52.250;21.228;2022-07-03T13:10:57;100643.64;;;32.18;32.11
36254;BME280;22291;52.250;21.228;2022-07-03T13:13:25;100637.80;;;32.43;32.30
36254;BME280;22291;52.250;21.228;2022-07-03T13:15:52;100651.47;;;32.58;32.23
36254;BME280;22291;52.250;21.228;2022-07-03T13:18:18;100629.20;;;32.55;32.21
36254;BME280;22291;52.250;21.228;2022-07-03T13:20:45;100622.60;;;32.62;32.44
36254;BME280;22291;52.250;21.228;2022-07-03T13:23:11;100622.60;;;32.62;32.44
36254;BME280;22291;52.250;21.228;2022-07-03T13:25:38;100630.97;;;32.74;32.59
36254;BME280;22291;52.250;21.228;2022-07-03T13:28:10;100639.27;;;32.65;32.78
36254;BME280;22291;52.250;21.228;2022-07-03T13:30:40;100639.27;;;32.65;32.78
36254;BME280;22291;52.250;21.228;2022-07-03T13:33:08;100621.06;;;32.30;33.26
36254;BME280;22291;52.250;21.228;2022-07-03T13:35:36;100621.66;;;32.12;33.71
36254;BME280;22291;52.250;21.228;2022-07-03T13:38:03;100619.08;;;31.92;34.08
36254;BME280;22291;52.250;21.228;2022-07-03T13:40:30;100615.91;;;31.73;34.54
36254;BME280;22291;52.250;21.228;2022-07-03T13:42:57;100611.67;;;31.55;34.98
36254;BME280;22291;52.250;21.228;2022-07-03T13:45:24;100619.27;;;31.46;35.15
36254;BME280;22291;52.250;21.228;2022-07-03T13:47:50;100610.70;;;31.33;35.61
36254;BME280;22291;52.250;21.228;2022-07-03T13:50:17;100608.05;;;31.08;35.69
36254;BME280;22291;52.250;21.228;2022-07-03T13:52:43;100607.79;;;30.73;36.00
36254;BME280;22291;52.250;21.228;2022-07-03T13:55:09;100610.41;;;30.43;36.65
36254;BME280;22291;52.250;21.228;2022-07-03T13:57:36;100607.69;;;30.39;37.02